< Cyclone 201105 2011 Season Cyclone 201109 >
Cyclone 201106 (noname)
General InformationTrack Information on Google MapsList of All Images || ResourceGoogle EarthGE AnimationAtom FeedGeoJSON
Detalied Best Track (Time Zone = UTC)
Year Month Day Hour Lat. Long. Pressure (hPa) Wind (kt) Class Image Chart
2010 12 29 00 -14.4 132.8 1002 10 2 Image --
2010 12 29 06 -14.4 132.8 1000 10 2 Image --
2010 12 29 12 -14.6 132.3 1000 10 2 Image --
2010 12 30 00 -14.9 131.2 1000 10 2 Image --
2010 12 30 03 -14.9 130.9 1000 10 2 Image --
2010 12 30 06 -15.0 130.2 1000 10 2 Image --
2010 12 30 09 -15.2 129.3 1000 10 0 Image --
2010 12 30 12 -15.4 128.4 1000 10 2 Image --
2010 12 30 13 -15.4 128.1 1000 10 2 Image --
2010 12 30 15 -15.5 127.6 1000 10 2 Image --
2010 12 30 18 -15.5 126.8 1000 15 2 Image --
2010 12 30 21 -15.6 126.0 1000 15 2 Image --
2010 12 31 00 -15.9 125.3 999 15 2 Image --
2010 12 31 03 -16.0 124.6 999 15 2 Image --
2010 12 31 06 -16.2 123.8 997 15 2 Image --
2010 12 31 09 -16.6 123.0 997 20 2 Image --
2010 12 31 10 -17.1 122.2 997 22 2 Image --
2010 12 31 12 -17.2 121.7 997 25 2 Image --
2010 12 31 15 -17.5 120.9 997 25 2 Image --
2010 12 31 18 -17.9 120.1 997 25 2 Image --
2010 12 31 21 -18.3 119.3 996 25 2 Image --
2011 1 1 00 -18.7 118.1 996 25 2 Image --
2011 1 1 03 -19.0 117.0 993 30 2 Image --
2011 1 1 06 -19.1 115.8 993 30 2 Image --
2011 1 1 09 -19.2 114.9 993 30 2 Image --
2011 1 1 12 -19.2 114.5 993 30 2 Image --
2011 1 1 18 -19.2 113.1 993 30 2 Image --
2011 1 1 21 -19.3 112.7 993 30 2 Image --
2011 1 2 00 -19.5 112.1 993 30 2 Image --
2011 1 2 03 -19.8 111.0 993 30 2 Image --
2011 1 2 06 -20.2 110.1 993 30 2 Image --
2011 1 2 12 -20.5 108.9 993 25 2 Image --
2011 1 2 18 -20.2 107.8 993 25 2 Image --
2011 1 3 00 -19.8 107.3 993 20 2 Image --
2011 1 3 03 -19.5 106.9 993 20 2 Image --
2011 1 3 06 -19.3 106.9 993 20 2 Image --
2011 1 3 12 -19.1 107.0 993 20 2 Image --
2011 1 3 18 -19.7 106.9 993 20 2 Image --
2011 1 3 21 -20.0 106.5 993 20 2 Image --
2011 1 4 00 -20.6 106.3 993 20 2 Image --
2011 1 4 03 -21.0 105.4 993 20 2 Image --
2011 1 5 00 -20.7 102.8 993 20 2 Image --
< Cyclone 201105 2011 Season Cyclone 201109 >

Help